Time;durP1;ratioP1;P1;durP2;ratioP2;P2;SDS_P1;SDS_P2;PMS_P1;PMS_P2;Temp;Humidity;BMP_temperature;BMP_pressure;BME280_temperature;BME280_humidity;BME280_pressure;Samples;Min_cycle;Max_cycle;Signal;HPM_P1;HPM_P2
2022/07/15 00:01:13;;;;;;;6.72;1.60;;;;;;;14.33;100.00;102142.03;4974841;28;20520;-77
2022/07/15 00:03:41;;;;;;;6.75;1.58;;;;;;;14.32;100.00;102149.13;4981187;28;20042;-78
2022/07/15 00:06:10;;;;;;;7.20;1.95;;;;;;;14.31;100.00;102150.00;4970247;28;20050;-78
2022/07/15 00:08:38;;;;;;;6.07;1.60;;;;;;;14.30;100.00;102150.88;4934625;28;20031;-78
2022/07/15 00:11:06;;;;;;;11.40;2.70;;;;;;;14.30;100.00;102145.56;4968789;28;20377;-78
2022/07/15 00:13:36;;;;;;;5.30;1.50;;;;;;;14.32;100.00;102137.63;4968747;28;20038;-77
2022/07/15 00:16:05;;;;;;;6.88;1.30;;;;;;;14.31;100.00;102150.00;4965450;28;20046;-79
2022/07/15 00:18:34;;;;;;;5.72;1.38;;;;;;;14.31;100.00;102141.16;4983694;28;20054;-77
2022/07/15 00:21:02;;;;;;;6.53;1.98;;;;;;;14.29;100.00;102138.50;4937900;28;20177;-77
2022/07/15 00:23:31;;;;;;;6.90;1.50;;;;;;;14.29;100.00;102141.16;4924046;28;20057;-78
2022/07/15 00:26:00;;;;;;;6.28;1.13;;;;;;;14.27;100.00;102132.28;4958269;28;20593;-78
2022/07/15 00:28:32;;;;;;;6.15;1.33;;;;;;;14.25;100.00;102141.97;4949743;28;20408;-78
2022/07/15 00:31:01;;;;;;;7.88;1.75;;;;;;;14.24;100.00;102129.63;4966561;28;20277;-78
2022/07/15 00:33:30;;;;;;;5.65;1.48;;;;;;;14.26;100.00;102132.28;4988654;28;20748;-78
2022/07/15 00:35:58;;;;;;;6.70;1.50;;;;;;;14.27;100.00;102128.75;4970594;28;20146;-78
2022/07/15 00:38:27;;;;;;;5.63;1.38;;;;;;;14.27;100.00;102129.63;4926658;28;20043;-78
2022/07/15 00:40:55;;;;;;;6.57;1.30;;;;;;;14.30;100.00;102129.66;4953205;28;20057;-77
2022/07/15 00:43:24;;;;;;;6.57;2.22;;;;;;;14.31;100.00;102123.50;4989119;28;20050;-77
2022/07/15 00:45:52;;;;;;;4.20;1.10;;;;;;;14.32;100.00;102119.06;4973861;28;20243;-77
2022/07/15 00:48:21;;;;;;;2.95;1.00;;;;;;;14.34;100.00;102122.63;4958546;28;20042;-78
2022/07/15 00:50:51;;;;;;;5.13;1.05;;;;;;;14.34;100.00;102125.28;4959161;28;20174;-77
2022/07/15 00:53:21;;;;;;;3.72;1.15;;;;;;;14.34;100.00;102127.94;4917731;28;20049;-77
2022/07/15 00:55:56;;;;;;;4.97;1.20;;;;;;;14.35;100.00;102127.94;4955698;28;20304;-77
2022/07/15 00:58:27;;;;;;;5.03;1.00;;;;;;;14.38;100.00;102127.94;4970989;28;20034;-77
2022/07/15 01:00:58;;;;;;;12.38;1.70;;;;;;;14.37;100.00;102126.19;4985653;28;20069;-78
2022/07/15 01:03:30;;;;;;;4.10;1.30;;;;;;;14.38;100.00;102124.41;4970739;28;20046;-78
2022/07/15 01:06:01;;;;;;;3.03;1.25;;;;;;;14.36;100.00;102121.75;4971825;28;20057;-78
2022/07/15 01:08:30;;;;;;;6.43;1.83;;;;;;;14.33;100.00;102124.41;4928393;28;20034;-79
2022/07/15 01:10:58;;;;;;;3.30;1.38;;;;;;;14.30;100.00;102124.34;4941561;28;20078;-79
2022/07/15 01:13:29;;;;;;;;;;;;;;;14.26;100.00;102124.34;4985242;28;20057;-78
2022/07/15 01:15:59;;;;;;;6.37;1.47;;;;;;;14.19;100.00;102126.91;4967583;28;20147;-77
2022/07/15 01:18:27;;;;;;;3.55;1.63;;;;;;;14.14;100.00;102127.75;4971064;28;20294;-78
2022/07/15 01:20:56;;;;;;;5.90;1.20;;;;;;;14.07;100.00;102121.53;4963810;28;20391;-78
2022/07/15 01:23:25;;;;;;;4.00;1.60;;;;;;;14.04;100.00;102124.13;4954555;28;20053;-78
2022/07/15 01:26:02;;;;;;;2.55;1.10;;;;;;;13.96;100.00;102124.06;4947860;28;20617;-78
2022/07/15 01:28:31;;;;;;;6.05;1.38;;;;;;;13.92;100.00;102124.03;4970073;28;20054;-78
2022/07/15 01:31:00;;;;;;;3.42;1.00;;;;;;;13.89;100.00;102129.28;4983238;28;20169;-78
2022/07/15 01:33:32;;;;;;;2.30;1.00;;;;;;;13.86;100.00;102130.16;4982026;28;20411;-78
2022/07/15 01:36:01;;;;;;;7.55;1.30;;;;;;;13.84;100.00;102124.84;4936937;28;20694;-78
2022/07/15 01:38:31;;;;;;;8.57;0.93;;;;;;;13.84;100.00;102130.13;4953046;28;20051;-78
2022/07/15 01:41:11;;;;;;;4.85;1.02;;;;;;;13.84;100.00;102129.25;4950572;28;20062;-79
2022/07/15 01:43:41;;;;;;;5.00;1.13;;;;;;;13.85;100.00;102131.00;4980534;28;20073;-79
2022/07/15 01:46:10;;;;;;;1.65;0.77;;;;;;;13.81;100.00;102129.22;4958477;28;20488;-78
2022/07/15 01:51:45;;;;;;;4.63;1.17;;;;;;;13.73;100.00;102142.38;4969014;28;20035;-78
2022/07/15 01:54:14;;;;;;;3.03;1.20;;;;;;;13.73;100.00;102138.84;4970804;28;20042;-78
2022/07/15 01:56:43;;;;;;;4.03;1.05;;;;;;;13.70;100.00;102138.81;4925395;28;20047;-78
2022/07/15 01:59:12;;;;;;;5.95;1.17;;;;;;;13.65;100.00;102144.94;4968083;28;20038;-79
2022/07/15 02:01:42;;;;;;;4.20;0.88;;;;;;;13.61;100.00;102156.38;4948923;28;20115;-78
2022/07/15 02:04:14;;;;;;;3.53;0.90;;;;;;;13.59;100.00;102146.63;4964928;28;20041;-78
2022/07/15 02:06:43;;;;;;;6.85;1.27;;;;;;;13.57;100.00;102148.38;4949397;28;20081;-78
2022/07/15 02:09:14;;;;;;;1.38;1.00;;;;;;;13.54;100.00;102145.72;4967970;28;20526;-78
2022/07/15 02:11:46;;;;;;;7.13;1.55;;;;;;;13.50;100.00;102143.91;4925847;28;20037;-78
2022/07/15 02:14:17;;;;;;;3.67;1.00;;;;;;;13.46;100.00;102150.91;4951312;28;20035;-78
2022/07/15 02:16:48;;;;;;;4.47;1.02;;;;;;;13.42;100.00;102149.97;4951454;28;20034;-78
2022/07/15 02:19:19;;;;;;;2.65;0.80;;;;;;;13.40;100.00;102149.09;4934792;28;20050;-78
2022/07/15 02:21:50;;;;;;;2.47;0.95;;;;;;;13.36;100.00;102147.22;4946258;28;20425;-78
2022/07/15 02:24:19;;;;;;;3.47;1.33;;;;;;;13.31;100.00;102141.03;4951470;28;20038;-78
2022/07/15 02:26:48;;;;;;;3.08;0.90;;;;;;;13.28;100.00;102143.59;4947474;28;20710;-78
2022/07/15 02:29:18;;;;;;;6.10;1.20;;;;;;;13.24;100.00;102147.94;4959672;28;20055;-78
2022/07/15 02:31:50;;;;;;;5.05;1.48;;;;;;;13.22;100.00;102151.44;4960209;28;20049;-78
2022/07/15 02:34:18;;;;;;;4.82;1.10;;;;;;;13.21;100.00;102147.94;4933359;28;20118;-78
2022/07/15 02:36:46;;;;;;;5.50;0.90;;;;;;;13.22;100.00;102144.38;4968400;28;20153;-78
2022/07/15 02:39:16;;;;;;;3.58;1.00;;;;;;;13.25;100.00;102147.09;4970192;28;20038;-79
2022/07/15 02:41:45;;;;;;;5.47;0.90;;;;;;;13.27;100.00;102142.69;4939373;28;20058;-78
2022/07/15 02:44:14;;;;;;;3.30;0.93;;;;;;;13.29;100.00;102150.66;4949018;28;20039;-78
2022/07/15 02:46:47;;;;;;;6.88;1.10;;;;;;;13.31;100.00;102138.38;4937907;28;20341;-78
2022/07/15 02:49:23;;;;;;;5.20;1.10;;;;;;;13.34;100.00;102142.81;4959272;28;20042;-77
2022/07/15 02:51:52;;;;;;;5.57;1.00;;;;;;;13.37;100.00;102145.50;4938403;28;20031;-77
2022/07/15 02:54:23;;;;;;;3.95;1.13;;;;;;;13.38;100.00;102140.22;4959292;28;20034;-77
2022/07/15 02:56:51;;;;;;;5.80;0.93;;;;;;;13.38;100.00;102148.19;4966856;28;20050;-79
2022/07/15 02:59:20;;;;;;;1.35;0.73;;;;;;;13.38;100.00;102147.25;4912873;28;20042;-79
2022/07/15 03:01:52;;;;;;;5.32;0.98;;;;;;;13.36;100.00;102147.22;4948590;28;20252;-79
2022/07/15 03:04:22;;;;;;;4.32;1.10;;;;;;;13.35;100.00;102152.53;4993448;28;20054;-78
2022/07/15 03:06:51;;;;;;;3.67;0.90;;;;;;;13.31;100.00;102148.06;4945578;28;20050;-78
2022/07/15 03:09:20;;;;;;;1.75;0.82;;;;;;;13.27;100.00;102142.69;4971013;28;20046;-79
2022/07/15 03:11:50;;;;;;;2.87;1.30;;;;;;;13.27;100.00;102152.41;4946873;28;20256;-78
2022/07/15 03:14:19;;;;;;;3.58;0.90;;;;;;;13.26;100.00;102147.97;4919713;28;20047;-79
2022/07/15 03:16:49;;;;;;;3.92;0.98;;;;;;;13.24;100.00;102145.28;4942002;28;20047;-77
2022/07/15 03:19:17;;;;;;;1.50;0.90;;;;;;;13.24;100.00;102152.34;4970563;28;20063;-79
2022/07/15 03:21:50;;;;;;;3.30;1.13;;;;;;;13.21;100.00;102150.56;4927709;28;20054;-78
2022/07/15 03:24:22;;;;;;;3.55;0.93;;;;;;;13.21;100.00;102153.22;4967126;28;20051;-78
2022/07/15 03:26:51;;;;;;;4.60;0.80;;;;;;;13.21;100.00;102158.50;4951236;28;20078;-78
2022/07/15 03:29:21;;;;;;;8.88;1.00;;;;;;;13.23;100.00;102158.50;4956189;28;20039;-78
2022/07/15 03:31:53;;;;;;;5.40;1.52;;;;;;;13.25;100.00;102159.41;4939471;28;20051;-78
2022/07/15 03:34:25;;;;;;;4.05;1.10;;;;;;;13.27;100.00;102157.69;4940054;28;20123;-78
2022/07/15 03:36:54;;;;;;;4.22;0.90;;;;;;;13.31;100.00;102161.28;4950966;28;20051;-78
2022/07/15 03:39:23;;;;;;;2.15;1.10;;;;;;;13.35;100.00;102163.13;4972018;28;20035;-78
2022/07/15 03:41:51;;;;;;;4.30;1.23;;;;;;;13.37;100.00;102161.38;4949260;28;20038;-78
2022/07/15 03:44:21;;;;;;;4.40;1.10;;;;;;;13.36;100.00;102168.41;4972378;28;20054;-78
2022/07/15 03:46:50;;;;;;;3.45;0.88;;;;;;;13.34;100.00;102169.28;4913956;28;20259;-78
2022/07/15 03:49:19;;;;;;;4.45;0.93;;;;;;;13.32;100.00;102177.19;4970666;28;20062;-78
2022/07/15 03:51:49;;;;;;;4.63;1.48;;;;;;;13.29;100.00;102177.13;4963763;28;20240;-78
2022/07/15 03:54:17;;;;;;;1.63;0.85;;;;;;;13.31;100.00;102190.41;4958829;28;20055;-79
2022/07/15 03:56:47;;;;;;;4.28;0.98;;;;;;;13.33;100.00;102186.94;4956323;28;20054;-79
2022/07/15 03:59:22;;;;;;;4.68;1.02;;;;;;;13.36;100.00;102184.31;4932147;29;20047;-77
2022/07/15 04:01:52;;;;;;;2.30;0.95;;;;;;;13.39;100.00;102178.19;4918043;28;20796;-79
2022/07/15 04:04:21;;;;;;;7.47;1.13;;;;;;;13.42;100.00;102183.50;4967685;28;20061;-77
2022/07/15 04:06:52;;;;;;;6.75;1.27;;;;;;;13.44;100.00;102187.06;4929809;28;20544;-77
2022/07/15 04:09:23;;;;;;;1.20;0.70;;;;;;;13.45;100.00;102180.91;4930136;29;20397;-77
2022/07/15 04:11:52;;;;;;;4.18;1.00;;;;;;;13.48;100.00;102182.69;4962101;28;20277;-77
2022/07/15 04:14:22;;;;;;;3.20;1.42;;;;;;;13.49;100.00;102182.72;4929540;28;20062;-78
2022/07/15 04:16:51;;;;;;;;;;;;;;;13.53;100.00;102183.63;4958243;28;20054;-78
2022/07/15 04:19:34;;;;;;;6.93;2.60;;;;;;;13.55;100.00;102184.53;4932611;28;20375;-77
2022/07/15 04:22:05;;;;;;;6.45;1.45;;;;;;;13.56;100.00;102181.03;4959361;28;20069;-77
2022/07/15 04:24:40;;;;;;;3.33;1.10;;;;;;;13.59;100.00;102183.69;4975372;28;20031;-78
2022/07/15 04:27:12;;;;;;;2.55;0.85;;;;;;;13.59;100.00;102184.63;4953875;28;20039;-78
2022/07/15 04:29:41;;;;;;;2.15;0.98;;;;;;;13.61;100.00;102189.91;4961447;28;20048;-78
2022/07/15 04:32:11;;;;;;;4.32;1.00;;;;;;;13.62;100.00;102181.09;4956964;28;20051;-79
2022/07/15 04:34:43;;;;;;;5.28;1.27;;;;;;;13.63;100.00;102186.44;4911393;28;20035;-77
2022/07/15 04:37:12;;;;;;;3.85;1.00;;;;;;;13.65;100.00;102187.31;4942598;28;20039;-77
2022/07/15 04:39:45;;;;;;;2.92;1.35;;;;;;;13.67;100.00;102194.38;4963838;28;20043;-78
2022/07/15 04:42:16;;;;;;;4.22;1.17;;;;;;;13.68;100.00;102206.78;4949428;29;20050;-77
2022/07/15 04:44:45;;;;;;;2.83;1.02;;;;;;;13.68;100.00;102201.47;4921431;28;20038;-78
2022/07/15 04:47:17;;;;;;;3.83;1.52;;;;;;;13.65;100.00;102199.69;4954031;28;20050;-77
2022/07/15 04:52:47;;;;;;;5.25;1.35;;;;;;;13.68;100.00;102206.78;4965371;28;20500;-77
2022/07/15 04:55:17;;;;;;;6.25;1.13;;;;;;;13.82;100.00;102210.50;4960040;28;20527;-77
2022/07/15 04:57:48;;;;;;;6.07;1.08;;;;;;;13.98;100.00;102200.94;4945088;28;20047;-78
2022/07/15 05:00:16;;;;;;;4.25;1.23;;;;;;;14.04;100.00;102208.94;4969121;28;20054;-77
2022/07/15 05:02:45;;;;;;;2.33;0.90;;;;;;;14.09;100.00;102206.34;4955943;28;20527;-78
2022/07/15 05:05:16;;;;;;;6.32;1.45;;;;;;;14.11;100.00;102207.25;4912195;28;20046;-78
2022/07/15 05:07:45;;;;;;;2.97;1.15;;;;;;;14.13;100.00;102205.50;4970753;28;20049;-78
2022/07/15 05:10:17;;;;;;;4.55;1.00;;;;;;;14.18;100.00;102209.97;4966350;28;20050;-78
2022/07/15 05:12:52;;;;;;;5.15;1.17;;;;;;;14.20;100.00;102215.31;4956037;28;20066;-78
2022/07/15 05:15:21;;;;;;;4.15;1.10;;;;;;;14.23;100.00;102215.31;4958241;28;20066;-78
2022/07/15 05:17:51;;;;;;;3.35;0.93;;;;;;;14.25;100.00;102216.22;4938054;28;20043;-78
2022/07/15 05:20:21;;;;;;;1.88;1.10;;;;;;;14.28;100.00;102218.91;4947920;28;20063;-78
2022/07/15 05:22:52;;;;;;;1.90;1.08;;;;;;;14.29;100.00;102211.84;4920699;28;20265;-78
2022/07/15 05:25:21;;;;;;;3.15;1.38;;;;;;;14.31;100.00;102220.69;4967863;28;20055;-78
2022/07/15 05:27:51;;;;;;;4.57;1.33;;;;;;;14.37;100.00;102216.34;4965153;28;20551;-78
2022/07/15 05:30:20;;;;;;;3.55;1.20;;;;;;;14.42;100.00;102219.03;4979602;28;20061;-78
2022/07/15 05:32:48;;;;;;;4.43;1.10;;;;;;;14.43;100.00;102212.88;4965221;28;20425;-79
2022/07/15 05:35:22;;;;;;;3.08;1.40;;;;;;;14.75;100.00;102206.97;4949140;28;20054;-78
2022/07/15 05:37:53;;;;;;;2.28;1.05;;;;;;;15.43;100.00;102207.41;4932012;28;20050;-78
2022/07/15 05:40:27;;;;;;;3.95;1.13;;;;;;;16.54;100.00;102206.81;4964991;28;20047;-78
2022/07/15 05:42:56;;;;;;;3.60;1.00;;;;;;;17.65;100.00;102203.91;4955906;28;20133;-78
2022/07/15 05:45:26;;;;;;;3.03;0.93;;;;;;;18.62;100.00;102197.97;4972354;28;20043;-77
2022/07/15 05:48:03;;;;;;;3.67;1.05;;;;;;;19.41;100.00;102195.41;4962806;28;20261;-77
2022/07/15 05:50:37;;;;;;;5.20;1.00;;;;;;;20.06;100.00;102191.88;4949607;28;20034;-77
2022/07/15 05:53:08;;;;;;;4.13;0.80;;;;;;;20.39;99.64;102189.56;4926829;28;20047;-77
2022/07/15 05:55:36;;;;;;;1.85;0.60;;;;;;;20.63;96.91;102194.53;4941650;28;20042;-78
2022/07/15 05:58:07;;;;;;;2.88;0.95;;;;;;;20.86;94.91;102195.91;4936435;28;20265;-78
2022/07/15 06:00:38;;;;;;;1.60;0.60;;;;;;;20.99;91.80;102192.09;4927402;28;20088;-78
2022/07/15 06:03:07;;;;;;;2.90;0.73;;;;;;;20.90;88.49;102192.28;4958091;28;20051;-78
2022/07/15 06:05:44;;;;;;;3.83;1.00;;;;;;;20.67;88.11;102199.84;4956036;28;20047;-79
2022/07/15 06:08:14;;;;;;;;;;;;;;;20.11;77.67;102211.41;4935111;28;20051;-77
2022/07/15 06:10:46;;;;;;;3.10;1.02;;;;;;;19.63;86.24;102217.38;4972649;28;19926;-78
2022/07/15 06:13:21;;;;;;;2.00;0.85;;;;;;;19.15;86.40;102217.09;4965065;28;20065;-78
2022/07/15 06:15:51;;;;;;;3.40;0.57;;;;;;;18.77;85.93;102217.41;4936769;28;20039;-78
2022/07/15 06:18:23;;;;;;;4.32;1.08;;;;;;;18.42;86.51;102226.59;4950248;28;20051;-78
2022/07/15 06:20:52;;;;;;;2.45;0.95;;;;;;;18.11;86.97;102225.03;4942426;28;20050;-78
2022/07/15 06:23:21;;;;;;;5.43;0.65;;;;;;;17.90;87.66;102236.72;4946405;28;20119;-78
2022/07/15 06:25:51;;;;;;;5.28;0.80;;;;;;;17.70;88.18;102234.09;4914166;28;20035;-78
2022/07/15 06:28:19;;;;;;;2.13;0.50;;;;;;;17.52;88.70;102235.09;4932224;28;20214;-78
2022/07/15 06:30:48;;;;;;;3.80;0.75;;;;;;;17.37;89.30;102245.75;4947388;28;20053;-80
2022/07/15 06:33:16;;;;;;;1.92;0.80;;;;;;;17.14;89.91;102253.81;4952477;28;20055;-80
2022/07/15 06:35:45;;;;;;;2.90;1.10;;;;;;;16.82;90.08;102252.06;4954755;28;20568;-79
2022/07/15 06:38:15;;;;;;;5.30;1.40;;;;;;;16.47;90.26;102255.59;4962344;28;20046;-79
2022/07/15 06:40:44;;;;;;;1.30;0.95;;;;;;;16.31;91.11;102259.09;4920637;28;20265;-78
2022/07/15 06:43:13;;;;;;;1.08;0.60;;;;;;;16.16;92.07;102259.94;4963967;28;20043;-78
2022/07/15 06:45:55;;;;;;;1.85;0.68;;;;;;;15.96;93.85;102266.09;4943103;28;20564;-80
2022/07/15 06:48:24;;;;;;;1.33;0.68;;;;;;;15.81;95.99;102267.81;4941172;28;20038;-78
2022/07/15 06:50:55;;;;;;;1.83;0.52;;;;;;;15.68;97.15;102261.53;4965062;28;20047;-78
2022/07/15 06:53:25;;;;;;;3.53;0.60;;;;;;;15.48;99.45;102243.75;4960815;28;20063;-78
2022/07/15 06:55:53;;;;;;;1.52;0.77;;;;;;;15.35;100.00;102255.16;4919567;28;20047;-78
2022/07/15 06:58:25;;;;;;;1.25;0.80;;;;;;;15.26;100.00;102247.16;4959146;28;20042;-78
2022/07/15 07:00:54;;;;;;;0.88;0.50;;;;;;;15.21;100.00;102249.75;4957612;28;20169;-78
2022/07/15 07:03:22;;;;;;;4.35;0.75;;;;;;;15.21;100.00;102247.97;4949055;28;20061;-79
2022/07/15 07:06:12;;;;;;;1.43;0.77;;;;;;;15.41;100.00;102249.88;4968643;28;20039;-79
2022/07/15 07:08:41;;;;;;;3.13;0.68;;;;;;;15.71;100.00;102246.50;4958471;28;20290;-79
2022/07/15 07:11:10;;;;;;;3.45;0.80;;;;;;;16.03;100.00;102236.88;4922305;28;20049;-78
2022/07/15 07:13:38;;;;;;;1.77;0.82;;;;;;;16.32;100.00;102248.47;4931915;28;20300;-78
2022/07/15 07:16:09;;;;;;;2.65;0.60;;;;;;;16.44;100.00;102247.59;4965804;28;20047;-80
2022/07/15 07:18:37;;;;;;;2.45;1.00;;;;;;;16.53;100.00;102249.38;4931832;28;20044;-79
2022/07/15 07:21:06;;;;;;;1.63;0.68;;;;;;;16.54;100.00;102241.41;4969915;28;20051;-79
2022/07/15 07:23:34;;;;;;;2.92;0.68;;;;;;;16.51;100.00;102243.16;4957835;28;20051;-79
2022/07/15 07:26:06;;;;;;;;;;;;;;;16.46;100.00;102243.16;4931699;28;20046;-77
2022/07/15 07:28:35;;;;;;;6.85;0.90;;;;;;;16.46;100.00;102236.94;4961019;28;19930;-79
2022/07/15 07:31:03;;;;;;;1.77;0.90;;;;;;;16.48;100.00;102248.47;4965871;28;20051;-78
2022/07/15 07:33:32;;;;;;;3.90;1.00;;;;;;;16.47;100.00;102241.41;4940299;28;20066;-78
2022/07/15 07:36:04;;;;;;;2.45;1.02;;;;;;;16.48;100.00;102236.09;4966728;28;20046;-80
2022/07/15 07:38:33;;;;;;;3.75;0.98;;;;;;;16.45;100.00;102245.84;4958754;28;20051;-78
2022/07/15 07:41:03;;;;;;;1.37;0.77;;;;;;;16.42;100.00;102244.03;4961870;28;20420;-79
2022/07/15 07:43:32;;;;;;;4.03;0.97;;;;;;;16.41;100.00;102228.97;4934544;28;20290;-80
2022/07/15 07:46:01;;;;;;;4.22;1.10;;;;;;;16.43;100.00;102235.19;4954700;28;20121;-79
2022/07/15 07:48:30;;;;;;;3.03;0.70;;;;;;;16.38;100.00;102226.31;4954401;28;20046;-79
2022/07/15 07:50:59;;;;;;;3.90;0.80;;;;;;;16.34;100.00;102221.88;4958591;28;20059;-79
2022/07/15 07:53:27;;;;;;;4.57;0.82;;;;;;;16.25;100.00;102222.72;4958278;28;20046;-79
2022/07/15 07:55:56;;;;;;;2.20;0.95;;;;;;;16.22;100.00;102216.53;4949751;28;20264;-80
2022/07/15 07:58:25;;;;;;;3.63;1.05;;;;;;;16.17;100.00;102228.03;4934724;28;20420;-80
2022/07/15 08:00:56;;;;;;;4.50;1.60;;;;;;;16.18;100.00;102224.50;4955617;28;20054;-79
2022/07/15 08:03:27;;;;;;;2.22;1.27;;;;;;;16.14;100.00;102232.47;4959626;28;20054;-79
2022/07/15 08:05:55;;;;;;;3.80;0.80;;;;;;;16.05;100.00;102228.03;4950720;28;20051;-78
2022/07/15 08:08:25;;;;;;;2.65;0.88;;;;;;;15.96;100.00;102228.88;4958395;28;20491;-79
2022/07/15 08:10:56;;;;;;;2.13;0.63;;;;;;;15.95;100.00;102240.41;4961400;28;20303;-79
2022/07/15 08:13:26;;;;;;;1.90;0.88;;;;;;;16.07;100.00;102228.03;4935896;28;20058;-78
2022/07/15 08:15:57;;;;;;;3.03;0.90;;;;;;;16.30;100.00;102225.41;4946688;28;20443;-78
2022/07/15 08:18:35;;;;;;;7.28;0.93;;;;;;;16.64;100.00;102225.44;4958118;28;20057;-78
2022/07/15 08:21:05;;;;;;;1.77;1.25;;;;;;;16.90;100.00;102225.44;4956916;28;20055;-78
2022/07/15 08:23:33;;;;;;;7.68;0.88;;;;;;;17.04;100.00;102218.31;4946159;28;20039;-78
2022/07/15 08:26:04;;;;;;;1.85;0.73;;;;;;;17.06;100.00;102215.66;4973906;28;20065;-78
2022/07/15 08:28:32;;;;;;;3.28;0.70;;;;;;;17.06;100.00;102224.53;4923936;28;20038;-78
2022/07/15 08:31:21;;;;;;;1.85;0.82;;;;;;;17.08;100.00;102222.75;4954776;28;20527;-78
2022/07/15 08:33:51;;;;;;;1.77;0.80;;;;;;;17.17;100.00;102227.19;4963400;28;20355;-78
2022/07/15 08:36:19;;;;;;;2.20;0.68;;;;;;;17.28;100.00;102228.03;4949827;28;20039;-78
2022/07/15 08:38:49;;;;;;;0.60;0.47;;;;;;;17.28;98.12;102229.84;4954592;28;20296;-78
2022/07/15 08:41:18;;;;;;;1.45;0.50;;;;;;;17.26;97.26;102229.81;4944643;28;20489;-78
2022/07/15 08:43:47;;;;;;;0.73;0.70;;;;;;;17.32;97.00;102240.47;4928592;28;21531;-78
2022/07/15 08:46:16;;;;;;;0.75;0.60;;;;;;;17.40;96.17;102227.13;4954776;28;20058;-78
2022/07/15 08:48:51;;;;;;;1.58;0.60;;;;;;;17.47;94.23;102231.53;4961221;28;20054;-78
2022/07/15 08:51:24;;;;;;;2.20;0.52;;;;;;;17.61;94.06;102233.25;4943659;28;20046;-78
2022/07/15 08:53:55;;;;;;;0.70;0.50;;;;;;;17.76;94.54;102241.19;4938609;28;20069;-77
2022/07/15 08:56:24;;;;;;;3.03;0.50;;;;;;;17.92;93.66;102239.38;4950583;28;20704;-79
2022/07/15 08:58:53;;;;;;;0.63;0.60;;;;;;;18.05;93.16;102229.50;4958673;28;20432;-78
2022/07/15 09:01:29;;;;;;;2.65;0.60;;;;;;;18.16;92.48;102227.66;4922678;28;20073;-78
2022/07/15 09:03:59;;;;;;;1.05;0.50;;;;;;;18.27;91.48;102225.81;4973607;28;20050;-77
2022/07/15 09:06:33;;;;;;;1.88;0.57;;;;;;;18.40;90.68;102226.63;4950134;28;20081;-78
2022/07/15 09:09:25;;;;;;;3.53;0.73;;;;;;;18.55;88.06;102214.94;4942575;28;20049;-77
2022/07/15 09:11:59;;;;;;;3.15;0.60;;;;;;;18.60;89.05;102217.56;4955921;28;20157;-78
2022/07/15 09:14:45;;;;;;;1.80;0.50;;;;;;;18.45;88.79;102223.91;4963128;28;20273;-78
2022/07/15 09:17:15;;;;;;;2.63;0.60;;;;;;;18.35;89.54;102228.41;4945397;28;20034;-77
2022/07/15 09:19:55;;;;;;;1.15;0.80;;;;;;;18.26;89.86;102233.81;4962261;28;20043;-78
2022/07/15 09:22:26;;;;;;;2.45;0.50;;;;;;;18.15;89.94;102223.25;4962807;28;20377;-77
2022/07/15 09:25:06;;;;;;;1.88;0.50;;;;;;;18.11;89.50;102225.03;4939702;28;20050;-78
2022/07/15 09:27:40;;;;;;;0.75;0.75;;;;;;;18.15;89.89;102231.25;4958279;28;20042;-78
2022/07/15 09:33:34;;;;;;;1.27;0.70;;;;;;;18.26;87.73;102218.72;4981783;28;20515;-78
2022/07/15 09:36:03;;;;;;;0.90;0.55;;;;;;;18.41;86.76;102217.72;4972012;28;20058;-78
2022/07/15 09:38:47;;;;;;;2.58;0.75;;;;;;;18.49;83.40;102223.00;4962728;28;20034;-78
2022/07/15 09:41:25;;;;;;;2.90;0.60;;;;;;;18.51;84.81;102223.88;4952344;28;20049;-78
2022/07/15 09:44:15;;;;;;;4.30;0.80;;;;;;;18.39;81.42;102229.28;4943580;28;20267;-78
2022/07/15 09:46:59;;;;;;;1.67;0.50;;;;;;;18.30;82.94;102235.59;4946233;28;21922;-77
2022/07/15 09:49:29;;;;;;;2.92;0.50;;;;;;;18.23;84.79;102228.53;4952175;28;20050;-78
2022/07/15 09:52:03;;;;;;;1.38;0.70;;;;;;;18.12;83.64;102229.47;4961039;28;20057;-78
2022/07/15 09:54:34;;;;;;;1.65;0.82;;;;;;;18.10;85.02;102230.38;4945116;28;20038;-78
2022/07/15 09:57:05;;;;;;;1.85;0.60;;;;;;;18.12;84.59;102228.59;4966445;28;20868;-77
2022/07/15 09:59:34;;;;;;;1.00;0.70;;;;;;;18.25;84.96;102229.41;4945322;28;20046;-77
2022/07/15 10:02:09;;;;;;;1.83;0.70;;;;;;;18.36;84.81;102230.22;4931672;28;20047;-77
2022/07/15 10:04:39;;;;;;;1.05;0.80;;;;;;;18.37;85.06;102242.63;4955114;28;20324;-78
2022/07/15 10:07:08;;;;;;;1.02;0.60;;;;;;;18.26;85.36;102229.38;4967423;28;20039;-79
2022/07/15 10:10:01;;;;;;;2.13;0.80;;;;;;;18.12;86.20;102237.47;4950492;28;20330;-79
2022/07/15 10:12:45;;;;;;;1.50;0.65;;;;;;;18.07;86.24;102230.38;4963529;28;20526;-78
2022/07/15 10:15:32;;;;;;;6.57;1.10;;;;;;;18.05;86.31;102234.84;4958142;28;20055;-79
2022/07/15 10:18:11;;;;;;;4.20;0.82;;;;;;;18.02;86.50;102222.44;4933599;28;20054;-78
2022/07/15 10:21:03;;;;;;;4.80;0.90;;;;;;;18.10;86.58;102223.25;4944861;28;20200;-81
2022/07/15 10:23:46;;;;;;;0.88;0.60;;;;;;;18.15;86.62;102211.66;4933194;28;20051;-78
2022/07/15 10:26:39;;;;;;;2.17;0.73;;;;;;;18.17;86.35;102215.22;4951614;28;20046;-79
2022/07/15 10:29:08;;;;;;;;;;;;;;;18.16;83.05;102227.66;4960447;28;20058;-78
2022/07/15 10:31:40;;;;;;;0.80;0.50;;;;;;;18.19;84.85;102221.44;4955615;28;20191;-78
2022/07/15 10:34:12;;;;;;;1.65;0.80;;;;;;;18.21;83.78;102219.66;4949767;28;20066;-78
2022/07/15 10:36:47;;;;;;;4.68;0.82;;;;;;;18.20;83.78;102220.53;4947906;28;20392;-78
2022/07/15 10:39:19;;;;;;;7.38;1.15;;;;;;;18.22;83.99;102219.66;4958947;28;20043;-77
2022/07/15 10:41:52;;;;;;;2.90;0.73;;;;;;;18.23;83.58;102224.06;4955284;28;20517;-78
2022/07/15 10:44:22;;;;;;;1.40;0.60;;;;;;;18.29;83.72;102221.34;4942956;28;20057;-79
2022/07/15 10:47:13;;;;;;;1.27;0.68;;;;;;;18.38;81.71;102219.53;4941715;28;20154;-79
2022/07/15 10:49:44;;;;;;;0.40;0.40;;;;;;;18.41;82.08;102222.16;4919619;28;22781;-77
2022/07/15 10:52:27;;;;;;;1.23;0.55;;;;;;;18.48;80.90;102213.22;4945262;28;20071;-77
2022/07/15 10:54:57;;;;;;;0.93;0.70;;;;;;;18.56;81.36;102219.34;4944524;28;20322;-79
2022/07/15 10:57:41;;;;;;;0.40;0.40;;;;;;;18.60;77.41;102213.13;4959089;28;20508;-77
2022/07/15 11:00:15;;;;;;;1.58;0.60;;;;;;;18.66;79.02;102209.50;4954512;28;20051;-77
2022/07/15 11:03:14;;;;;;;1.38;0.65;;;;;;;18.73;76.56;102211.22;4952589;28;20348;-77
2022/07/15 11:05:48;;;;;;;0.70;0.60;;;;;;;18.73;79.53;102213.88;4923173;28;20676;-77
2022/07/15 11:08:40;;;;;;;2.53;0.70;;;;;;;18.69;78.87;102204.13;4943497;28;20493;-77
2022/07/15 11:11:14;;;;;;;1.40;0.70;;;;;;;18.59;79.13;102208.66;4968931;28;20054;-77
2022/07/15 11:13:49;;;;;;;1.42;0.65;;;;;;;18.49;79.32;102207.00;4955163;28;20279;-78
2022/07/15 11:16:20;;;;;;;2.47;0.60;;;;;;;18.39;79.63;102205.28;4965803;28;20062;-80
2022/07/15 11:18:57;;;;;;;1.80;0.60;;;;;;;18.34;80.51;102201.78;4926537;28;20039;-77
2022/07/15 11:21:33;;;;;;;0.70;0.68;;;;;;;18.34;80.90;102202.66;4929124;28;20077;-78
2022/07/15 11:24:02;;;;;;;1.13;0.65;;;;;;;18.38;81.49;102208.84;4939817;28;20057;-77
2022/07/15 11:26:46;;;;;;;1.90;0.45;;;;;;;18.39;81.23;102199.94;4950315;28;20587;-77
2022/07/15 11:29:15;;;;;;;2.47;0.60;;;;;;;18.46;81.78;102199.00;4953662;28;20050;-79
2022/07/15 11:31:44;;;;;;;2.13;0.50;;;;;;;18.52;81.76;102193.59;4939487;28;20408;-78
2022/07/15 11:34:13;;;;;;;0.85;0.50;;;;;;;18.57;81.04;102193.56;4939400;28;20046;-77
2022/07/15 11:36:42;;;;;;;1.02;0.95;;;;;;;18.62;80.27;102191.72;4925194;28;20496;-79
2022/07/15 11:39:10;;;;;;;1.73;0.68;;;;;;;18.70;80.61;102196.09;4893257;28;20621;-77
2022/07/15 11:44:50;;;;;;;1.42;0.70;;;;;;;18.78;78.83;102192.50;4955358;28;20412;-77
2022/07/15 11:47:19;;;;;;;1.10;0.52;;;;;;;18.84;78.88;102190.66;4957484;28;20269;-78
2022/07/15 11:49:58;;;;;;;0.80;0.70;;;;;;;18.93;78.22;102189.69;4955314;28;20044;-79
2022/07/15 11:52:30;;;;;;;1.25;0.55;;;;;;;18.95;78.46;102182.53;4963038;28;20050;-78
2022/07/15 11:55:05;;;;;;;1.60;0.75;;;;;;;19.01;78.36;102190.50;4916218;28;20054;-79